Time;durP1;ratioP1;P1;durP2;ratioP2;P2;SDS_P1;SDS_P2;PMS_P1;PMS_P2;Temp;Humidity;BMP_temperature;BMP_pressure;BME280_temperature;BME280_humidity;BME280_pressure;Samples;Min_cycle;Max_cycle;Signal;HPM_P1;HPM_P2
2023/09/01 00:01:03;;;;;;;1.05;1.05;;;;;;;;;;4897204;29;20237;-82
2023/09/01 00:03:30;;;;;;;0.88;0.88;;;;;;;;;;4896746;29;20224;-81
2023/09/01 00:05:58;;;;;;;2.33;0.98;;;;;;;;;;4895082;29;20207;-83
2023/09/01 00:08:25;;;;;;;1.30;1.30;;;;;;;;;;4897173;29;20208;-81
2023/09/01 00:10:54;;;;;;;1.95;0.85;;;;;;;;;;4897478;29;20212;-80
2023/09/01 00:13:23;;;;;;;3.42;1.20;;;;;;;;;;4896888;29;20731;-81
2023/09/01 00:15:51;;;;;;;0.85;0.85;;;;;;;;;;4897130;29;20287;-82
2023/09/01 00:18:18;;;;;;;0.98;0.77;;;;;;;;;;4896830;29;20199;-82
2023/09/01 00:20:45;;;;;;;2.50;1.20;;;;;;;;;;4896026;29;20298;-82
2023/09/01 00:23:15;;;;;;;0.70;0.70;;;;;;;;;;4896606;29;20253;-82
2023/09/01 00:25:42;;;;;;;1.38;1.27;;;;;;;;;;4896757;29;20207;-82
2023/09/01 00:28:10;;;;;;;2.63;1.25;;;;;;;;;;4881488;29;20234;-83
2023/09/01 00:30:51;;;;;;;1.10;0.90;;;;;;;;;;4881883;29;20235;-81
2023/09/01 00:33:18;;;;;;;0.85;0.85;;;;;;;;;;4896626;29;20229;-82
2023/09/01 00:35:46;;;;;;;1.75;1.15;;;;;;;;;;4895974;29;20210;-81
2023/09/01 00:38:13;;;;;;;2.15;0.82;;;;;;;;;;4896596;29;20702;-82
2023/09/01 00:40:40;;;;;;;1.13;1.10;;;;;;;;;;4896189;29;20276;-82
2023/09/01 00:43:07;;;;;;;1.08;1.08;;;;;;;;;;4896310;29;20203;-80
2023/09/01 00:45:37;;;;;;;1.08;0.98;;;;;;;;;;4891561;29;20274;-81
2023/09/01 00:48:04;;;;;;;1.83;1.13;;;;;;;;;;4877738;29;20210;-82
2023/09/01 00:50:32;;;;;;;1.08;1.00;;;;;;;;;;4875896;29;20279;-82
2023/09/01 00:53:02;;;;;;;4.40;1.50;;;;;;;;;;4872193;29;20262;-82
2023/09/01 00:55:30;;;;;;;3.80;1.00;;;;;;;;;;4877511;29;20339;-81
2023/09/01 00:57:58;;;;;;;1.25;1.15;;;;;;;;;;4877133;29;20254;-82
2023/09/01 01:00:26;;;;;;;1.23;0.80;;;;;;;;;;4877504;29;20207;-80
2023/09/01 01:02:55;;;;;;;0.85;0.85;;;;;;;;;;4877877;29;20200;-81
2023/09/01 01:05:27;;;;;;;3.40;1.00;;;;;;;;;;4877227;29;20203;-82
2023/09/01 01:07:58;;;;;;;0.98;0.98;;;;;;;;;;4877352;29;20593;-81
2023/09/01 01:10:29;;;;;;;1.50;1.27;;;;;;;;;;4877627;29;20239;-80
2023/09/01 01:12:59;;;;;;;1.83;0.95;;;;;;;;;;4877809;29;20319;-81
2023/09/01 01:15:32;;;;;;;4.45;1.00;;;;;;;;;;4877320;29;20275;-81
2023/09/01 01:18:01;;;;;;;9.43;1.70;;;;;;;;;;4876874;29;20206;-81
2023/09/01 01:20:35;;;;;;;4.78;1.10;;;;;;;;;;4877183;29;20291;-82
2023/09/01 01:23:11;;;;;;;1.17;0.77;;;;;;;;;;4877299;29;20296;-80
2023/09/01 01:25:39;;;;;;;0.70;0.70;;;;;;;;;;4876637;29;20207;-81
2023/09/01 01:28:09;;;;;;;3.10;0.90;;;;;;;;;;4876854;29;20200;-81
2023/09/01 01:30:39;;;;;;;1.20;1.10;;;;;;;;;;4877322;29;20236;-81
2023/09/01 01:33:06;;;;;;;1.08;1.08;;;;;;;;;;4876304;29;20264;-82
2023/09/01 01:35:40;;;;;;;4.05;1.27;;;;;;;;;;4876889;29;20247;-81
2023/09/01 01:38:10;;;;;;;1.40;1.30;;;;;;;;;;4877137;29;20206;-81
2023/09/01 01:40:39;;;;;;;1.25;1.20;;;;;;;;;;4876727;29;20217;-81
2023/09/01 01:43:08;;;;;;;1.17;0.90;;;;;;;;;;4877020;29;20210;-81
2023/09/01 01:45:36;;;;;;;1.45;0.98;;;;;;;;;;4876880;29;20206;-81
2023/09/01 01:48:03;;;;;;;1.35;1.25;;;;;;;;;;4876690;29;20240;-82
2023/09/01 01:50:32;;;;;;;1.08;1.08;;;;;;;;;;4876837;29;20210;-82
2023/09/01 01:53:01;;;;;;;1.20;0.80;;;;;;;;;;4876489;29;20258;-81
2023/09/01 01:55:29;;;;;;;1.38;1.20;;;;;;;;;;4876597;29;20222;-81
2023/09/01 01:58:00;;;;;;;1.23;1.13;;;;;;;;;;4876835;29;20219;-82
2023/09/01 02:00:28;;;;;;;5.38;1.20;;;;;;;;;;4876674;29;20212;-81
2023/09/01 02:02:55;;;;;;;2.42;1.15;;;;;;;;;;4877025;29;20272;-81
2023/09/01 02:05:22;;;;;;;3.63;1.70;;;;;;;;;;4877014;29;20214;-81
2023/09/01 02:07:49;;;;;;;1.00;1.00;;;;;;;;;;4876592;29;20216;-81
2023/09/01 02:10:17;;;;;;;0.80;0.80;;;;;;;;;;4876536;29;20243;-80
2023/09/01 02:12:45;;;;;;;1.27;1.27;;;;;;;;;;4876302;29;20323;-82
2023/09/01 02:15:13;;;;;;;2.87;1.30;;;;;;;;;;4875974;29;20274;-81
2023/09/01 02:17:40;;;;;;;0.97;0.97;;;;;;;;;;4876693;29;20202;-81
2023/09/01 02:20:16;;;;;;;0.77;0.77;;;;;;;;;;4876648;29;20292;-82
2023/09/01 02:22:44;;;;;;;4.40;0.90;;;;;;;;;;4876172;29;20218;-80
2023/09/01 02:25:12;;;;;;;5.57;1.03;;;;;;;;;;4876410;29;20205;-81
2023/09/01 02:27:39;;;;;;;2.77;1.00;;;;;;;;;;4876728;29;20220;-82
2023/09/01 02:30:08;;;;;;;1.63;1.53;;;;;;;;;;4878639;29;20205;-81
2023/09/01 02:32:37;;;;;;;1.90;1.37;;;;;;;;;;4879307;29;20671;-81
2023/09/01 02:35:06;;;;;;;0.93;0.93;;;;;;;;;;4880124;29;20239;-81
2023/09/01 02:37:34;;;;;;;3.20;1.23;;;;;;;;;;4879724;29;20203;-81
2023/09/01 02:40:01;;;;;;;1.27;1.27;;;;;;;;;;4880070;29;20212;-81
2023/09/01 02:42:28;;;;;;;3.13;1.43;;;;;;;;;;4880380;29;20217;-82
2023/09/01 02:45:01;;;;;;;4.40;1.90;;;;;;;;;;4879982;29;20269;-83
2023/09/01 02:47:28;;;;;;;3.33;1.73;;;;;;;;;;4880569;29;20205;-81
2023/09/01 02:49:58;;;;;;;6.20;1.47;;;;;;;;;;4880315;29;20202;-80
2023/09/01 02:52:26;;;;;;;4.20;1.73;;;;;;;;;;4880046;29;20297;-79
2023/09/01 02:54:55;;;;;;;2.03;1.63;;;;;;;;;;4880035;29;20293;-80
2023/09/01 02:57:24;;;;;;;1.40;1.30;;;;;;;;;;4879615;29;20208;-82
2023/09/01 02:59:52;;;;;;;4.93;1.27;;;;;;;;;;4881081;29;20210;-82
2023/09/01 03:02:18;;;;;;;2.47;1.33;;;;;;;;;;4881250;29;20689;-82
2023/09/01 03:04:47;;;;;;;3.47;1.40;;;;;;;;;;4881288;29;20206;-80
2023/09/01 03:07:16;;;;;;;2.23;1.20;;;;;;;;;;4880374;29;20213;-79
2023/09/01 03:09:44;;;;;;;3.57;1.47;;;;;;;;;;4879736;29;20602;-81
2023/09/01 03:12:13;;;;;;;2.60;1.50;;;;;;;;;;4879320;29;20211;-81
2023/09/01 03:14:40;;;;;;;1.57;1.47;;;;;;;;;;4879293;29;20330;-81
2023/09/01 03:17:07;;;;;;;2.33;1.17;;;;;;;;;;4879450;29;20730;-80
2023/09/01 03:19:34;;;;;;;2.47;1.43;;;;;;;;;;4878965;29;20273;-81
2023/09/01 03:22:04;;;;;;;2.17;1.70;;;;;;;;;;4879145;29;20284;-80
2023/09/01 03:24:33;;;;;;;3.10;1.60;;;;;;;;;;4879530;29;20211;-80
2023/09/01 03:26:59;;;;;;;1.50;1.40;;;;;;;;;;4879574;29;20342;-81
2023/09/01 03:29:26;;;;;;;2.60;1.50;;;;;;;;;;4878981;29;20754;-81
2023/09/01 03:31:53;;;;;;;2.63;1.70;;;;;;;;;;4879028;29;20238;-82
2023/09/01 03:34:23;;;;;;;1.53;1.43;;;;;;;;;;4878988;29;20276;-80
2023/09/01 03:36:53;;;;;;;1.63;1.53;;;;;;;;;;4878889;29;20212;-81
2023/09/01 03:39:21;;;;;;;3.87;2.03;;;;;;;;;;4878676;29;20219;-81
2023/09/01 03:41:49;;;;;;;1.60;1.50;;;;;;;;;;4878390;29;20214;-81
2023/09/01 03:44:17;;;;;;;1.43;1.10;;;;;;;;;;4878683;29;20719;-80
2023/09/01 03:46:45;;;;;;;1.77;1.67;;;;;;;;;;4878949;29;20208;-81
2023/09/01 03:49:12;;;;;;;3.60;1.40;;;;;;;;;;4878414;29;20210;-81
2023/09/01 03:51:40;;;;;;;8.17;1.90;;;;;;;;;;4878448;29;20257;-81
2023/09/01 03:54:08;;;;;;;2.77;1.63;;;;;;;;;;4878999;29;20614;-81
2023/09/01 03:56:35;;;;;;;2.30;1.43;;;;;;;;;;4879181;29;20206;-81
2023/09/01 03:59:03;;;;;;;3.97;1.70;;;;;;;;;;4878560;29;20281;-81
2023/09/01 04:01:29;;;;;;;1.53;1.43;;;;;;;;;;4878264;29;20210;-81
2023/09/01 04:03:59;;;;;;;1.83;1.73;;;;;;;;;;4878445;29;20289;-81
2023/09/01 04:06:36;;;;;;;1.93;1.67;;;;;;;;;;4878691;29;20310;-80
2023/09/01 04:09:06;;;;;;;1.80;1.70;;;;;;;;;;4878384;29;20253;-81
2023/09/01 04:11:34;;;;;;;1.57;1.47;;;;;;;;;;4878374;29;20300;-80
2023/09/01 04:14:03;;;;;;;4.83;1.33;;;;;;;;;;4878599;29;20267;-80
2023/09/01 04:16:32;;;;;;;2.63;1.70;;;;;;;;;;4878789;29;20253;-82
2023/09/01 04:18:58;;;;;;;3.15;2.05;;;;;;;;;;4878476;29;20256;-81
2023/09/01 04:21:29;;;;;;;1.73;1.30;;;;;;;;;;4878209;29;20209;-81
2023/09/01 04:23:55;;;;;;;1.42;1.30;;;;;;;;;;4878418;29;20332;-81
2023/09/01 04:26:22;;;;;;;1.83;1.70;;;;;;;;;;4878551;29;20201;-82
2023/09/01 04:28:50;;;;;;;3.72;2.08;;;;;;;;;;4878103;29;20205;-82
2023/09/01 04:31:17;;;;;;;1.95;1.85;;;;;;;;;;4877476;29;20292;-82
2023/09/01 04:33:48;;;;;;;1.25;1.25;;;;;;;;;;4878508;29;20237;-82
2023/09/01 04:36:15;;;;;;;3.17;2.05;;;;;;;;;;4879570;29;20198;-82
2023/09/01 04:38:42;;;;;;;4.15;2.00;;;;;;;;;;4878801;29;20265;-83
2023/09/01 04:41:11;;;;;;;3.22;1.85;;;;;;;;;;4877851;29;20709;-82
2023/09/01 04:43:38;;;;;;;4.90;1.95;;;;;;;;;;4877621;29;20220;-82
2023/09/01 04:46:06;;;;;;;2.92;2.05;;;;;;;;;;4877946;29;20213;-82
2023/09/01 04:48:34;;;;;;;3.25;2.15;;;;;;;;;;4877572;29;20683;-83
2023/09/01 04:51:07;;;;;;;4.88;2.95;;;;;;;;;;4877760;29;20261;-82
2023/09/01 04:53:37;;;;;;;4.63;2.70;;;;;;;;;;4876958;29;20698;-82
2023/09/01 04:56:07;;;;;;;4.00;2.05;;;;;;;;;;4878006;29;20559;-82
2023/09/01 04:58:34;;;;;;;4.30;2.30;;;;;;;;;;4877266;29;20210;-82
2023/09/01 05:01:03;;;;;;;2.58;2.17;;;;;;;;;;4877678;29;20281;-83
2023/09/01 05:03:32;;;;;;;3.20;1.90;;;;;;;;;;4877450;29;20220;-82
2023/09/01 05:06:03;;;;;;;3.50;2.35;;;;;;;;;;4877081;29;20205;-82
2023/09/01 05:08:32;;;;;;;3.30;2.30;;;;;;;;;;4877101;29;20202;-82
2023/09/01 05:11:01;;;;;;;2.53;2.35;;;;;;;;;;4877236;29;20208;-81
2023/09/01 05:13:28;;;;;;;6.43;2.67;;;;;;;;;;4877693;29;20311;-81
2023/09/01 05:15:57;;;;;;;2.50;2.30;;;;;;;;;;4877817;29;20214;-81
2023/09/01 05:18:26;;;;;;;5.18;2.60;;;;;;;;;;4876777;29;20656;-81
2023/09/01 05:20:56;;;;;;;4.20;1.95;;;;;;;;;;4877039;29;20228;-82
2023/09/01 05:23:28;;;;;;;4.45;2.20;;;;;;;;;;4876484;29;20217;-81
2023/09/01 05:25:56;;;;;;;4.68;2.15;;;;;;;;;;4877222;29;20360;-82
2023/09/01 05:28:23;;;;;;;2.88;2.55;;;;;;;;;;4876875;29;20209;-82
2023/09/01 05:30:51;;;;;;;2.60;2.40;;;;;;;;;;4876413;29;20396;-81
2023/09/01 05:33:19;;;;;;;4.70;1.95;;;;;;;;;;4876055;29;20686;-82
2023/09/01 05:35:46;;;;;;;2.03;1.92;;;;;;;;;;4876874;29;20319;-81
2023/09/01 05:38:14;;;;;;;6.32;3.05;;;;;;;;;;4859293;29;20213;-81
2023/09/01 05:40:41;;;;;;;2.42;2.25;;;;;;;;;;4876463;29;20205;-81
2023/09/01 05:43:17;;;;;;;2.42;2.22;;;;;;;;;;4876575;29;20665;-82
2023/09/01 05:45:44;;;;;;;2.20;2.10;;;;;;;;;;4876641;29;20317;-82
2023/09/01 05:48:12;;;;;;;2.70;2.47;;;;;;;;;;4876944;29;20577;-81
2023/09/01 05:50:43;;;;;;;4.38;2.63;;;;;;;;;;4876288;29;20207;-81
2023/09/01 05:53:11;;;;;;;4.38;2.25;;;;;;;;;;4859748;29;20208;-82
2023/09/01 05:55:38;;;;;;;2.95;2.53;;;;;;;;;;4876220;29;20205;-81
2023/09/01 05:58:09;;;;;;;11.73;2.28;;;;;;;;;;4877249;29;20231;-81
2023/09/01 06:00:37;;;;;;;3.08;2.50;;;;;;;;;;4876813;29;20311;-81
2023/09/01 06:03:06;;;;;;;2.58;2.38;;;;;;;;;;4876104;29;20605;-81
2023/09/01 06:05:35;;;;;;;2.53;2.03;;;;;;;;;;4875982;29;20686;-81
2023/09/01 06:08:02;;;;;;;2.15;2.05;;;;;;;;;;4876382;29;20204;-82
2023/09/01 06:10:31;;;;;;;1.85;1.70;;;;;;;;;;4876246;29;20327;-81
2023/09/01 06:13:00;;;;;;;2.80;1.42;;;;;;;;;;4876002;29;20215;-81
2023/09/01 06:15:33;;;;;;;2.15;1.63;;;;;;;;;;4875788;29;20245;-81
2023/09/01 06:18:11;;;;;;;2.13;1.70;;;;;;;;;;4875773;29;20627;-82
2023/09/01 06:21:01;;;;;;;2.67;1.60;;;;;;;;;;4876196;29;20264;-82
2023/09/01 06:26:17;;;;;;;4.88;1.77;;;;;;;;;;4872367;29;20200;-81
2023/09/01 06:28:47;;;;;;;2.30;2.20;;;;;;;;;;4875703;29;20517;-82
2023/09/01 06:31:16;;;;;;;1.95;1.58;;;;;;;;;;4875962;29;20252;-82
2023/09/01 06:33:46;;;;;;;2.80;1.45;;;;;;;;;;4876404;29;20233;-82
2023/09/01 06:36:14;;;;;;;1.58;1.48;;;;;;;;;;4875816;29;20197;-82
2023/09/01 06:38:42;;;;;;;2.05;1.95;;;;;;;;;;4875806;29;20208;-82
2023/09/01 06:41:08;;;;;;;2.75;1.65;;;;;;;;;;4875876;29;20268;-80
2023/09/01 06:43:37;;;;;;;2.22;1.70;;;;;;;;;;4881195;29;20205;-81
2023/09/01 06:46:04;;;;;;;1.48;1.35;;;;;;;;;;4876235;29;20211;-82
2023/09/01 06:48:31;;;;;;;1.60;1.50;;;;;;;;;;4876104;29;20221;-82
2023/09/01 06:51:00;;;;;;;2.17;2.08;;;;;;;;;;4876156;29;20291;-82
2023/09/01 06:53:29;;;;;;;1.50;1.48;;;;;;;;;;4875460;29;20304;-82
2023/09/01 06:55:56;;;;;;;2.55;1.50;;;;;;;;;;4875489;29;20692;-82
2023/09/01 06:58:25;;;;;;;2.00;1.80;;;;;;;;;;4887087;29;20212;-82
2023/09/01 07:00:57;;;;;;;2.47;1.30;;;;;;;;;;4893889;29;20211;-82
2023/09/01 07:03:25;;;;;;;1.67;1.58;;;;;;;;;;4894421;29;20287;-82
2023/09/01 07:05:57;;;;;;;1.80;1.70;;;;;;;;;;4893952;29;20244;-83
2023/09/01 07:08:29;;;;;;;2.00;1.90;;;;;;;;;;4894169;29;20208;-82
2023/09/01 07:11:02;;;;;;;2.00;1.90;;;;;;;;;;4889247;29;20197;-82
2023/09/01 07:13:31;;;;;;;2.20;1.42;;;;;;;;;;4882807;29;20689;-80
2023/09/01 07:15:59;;;;;;;1.60;1.60;;;;;;;;;;4883983;29;20233;-81
2023/09/01 07:18:28;;;;;;;1.80;1.70;;;;;;;;;;4897530;29;20197;-81
2023/09/01 07:20:59;;;;;;;2.20;1.70;;;;;;;;;;4897946;29;20212;-82
2023/09/01 07:23:29;;;;;;;1.88;1.80;;;;;;;;;;4897584;29;20204;-82
2023/09/01 07:25:57;;;;;;;1.50;1.50;;;;;;;;;;4897439;29;20300;-82
2023/09/01 07:28:27;;;;;;;2.78;1.45;;;;;;;;;;4896861;29;20212;-81
2023/09/01 07:30:54;;;;;;;4.75;1.67;;;;;;;;;;4897447;29;20312;-82
2023/09/01 07:33:21;;;;;;;1.92;1.83;;;;;;;;;;4896972;29;20746;-83
2023/09/01 07:35:49;;;;;;;1.58;1.58;;;;;;;;;;4881086;29;20232;-82
2023/09/01 07:38:17;;;;;;;2.53;2.33;;;;;;;;;;4885656;29;20221;-80
2023/09/01 07:40:48;;;;;;;2.35;1.67;;;;;;;;;;4878714;29;20208;-82
2023/09/01 07:43:17;;;;;;;5.10;1.73;;;;;;;;;;4878024;29;20686;-82
2023/09/01 07:45:53;;;;;;;2.35;1.80;;;;;;;;;;4877899;29;20288;-83
2023/09/01 07:48:23;;;;;;;1.98;1.88;;;;;;;;;;4878389;29;20198;-82
2023/09/01 07:51:23;;;;;;;1.58;1.48;;;;;;;;;;4878548;29;20257;-82
2023/09/01 07:56:36;;;;;;;2.88;2.55;;;;;;;;;;4875434;29;20569;-84
2023/09/01 07:59:11;;;;;;;2.50;2.30;;;;;;;;;;4878703;29;20292;-83
2023/09/01 08:01:45;;;;;;;2.38;2.28;;;;;;;;;;4878308;29;20589;-83
2023/09/01 08:07:00;;;;;;;1.85;1.75;;;;;;;;;;4861443;29;20201;-83
2023/09/01 08:09:30;;;;;;;2.47;1.90;;;;;;;;;;4878186;29;20797;-84
2023/09/01 08:11:59;;;;;;;2.30;2.20;;;;;;;;;;4878029;29;20272;-82
2023/09/01 08:14:26;;;;;;;2.10;2.00;;;;;;;;;;4877923;29;20244;-85
2023/09/01 08:16:54;;;;;;;2.30;2.10;;;;;;;;;;4878063;29;20210;-84
2023/09/01 08:19:30;;;;;;;2.10;2.00;;;;;;;;;;4877838;29;20652;-83
2023/09/01 08:22:01;;;;;;;2.40;2.30;;;;;;;;;;4878046;29;20199;-83
2023/09/01 08:24:31;;;;;;;2.58;2.47;;;;;;;;;;4874820;29;20285;-84
2023/09/01 08:27:08;;;;;;;2.55;2.45;;;;;;;;;;4873591;29;20245;-84
2023/09/01 08:29:42;;;;;;;3.03;2.92;;;;;;;;;;4876376;29;20707;-84
2023/09/01 08:32:12;;;;;;;2.70;2.60;;;;;;;;;;4872421;29;20253;-84
2023/09/01 08:34:46;;;;;;;2.78;2.63;;;;;;;;;;4876645;29;20575;-82
2023/09/01 08:37:18;;;;;;;2.47;2.38;;;;;;;;;;4875176;29;20225;-84
2023/09/01 08:39:47;;;;;;;2.60;2.50;;;;;;;;;;4876515;29;20729;-83
2023/09/01 08:42:16;;;;;;;2.30;2.05;;;;;;;;;;4875907;29;20241;-82
2023/09/01 08:44:46;;;;;;;2.53;2.33;;;;;;;;;;4877928;29;20253;-82
2023/09/01 08:47:17;;;;;;;2.50;2.40;;;;;;;;;;4874895;29;20244;-83
2023/09/01 08:49:46;;;;;;;3.30;2.60;;;;;;;;;;4876434;29;20240;-83
2023/09/01 08:52:15;;;;;;;2.58;2.47;;;;;;;;;;4873233;29;20225;-83
2023/09/01 08:54:43;;;;;;;2.65;2.45;;;;;;;;;;4876452;29;20719;-84
2023/09/01 08:57:11;;;;;;;2.95;2.80;;;;;;;;;;4875847;29;20221;-84
2023/09/01 08:59:42;;;;;;;2.95;2.67;;;;;;;;;;4876215;29;20237;-84
2023/09/01 09:02:10;;;;;;;3.17;2.97;;;;;;;;;;4875767;29;20275;-83
2023/09/01 09:04:40;;;;;;;3.05;2.95;;;;;;;;;;4875938;29;20305;-84
2023/09/01 09:07:16;;;;;;;4.03;2.92;;;;;;;;;;4875027;29;20281;-84
2023/09/01 09:09:56;;;;;;;3.13;2.90;;;;;;;;;;4875861;29;20244;-84
2023/09/01 09:12:26;;;;;;;2.85;2.65;;;;;;;;;;4875500;29;20248;-85
2023/09/01 09:14:56;;;;;;;2.63;2.42;;;;;;;;;;4876043;29;20245;-85
2023/09/01 09:17:23;;;;;;;2.58;2.47;;;;;;;;;;4876001;29;20229;-83
2023/09/01 09:19:54;;;;;;;3.55;2.92;;;;;;;;;;4875632;29;20644;-84
2023/09/01 09:22:21;;;;;;;2.83;2.70;;;;;;;;;;4876043;29;20286;-85
2023/09/01 09:24:49;;;;;;;2.60;2.40;;;;;;;;;;4875792;29;20320;-83
2023/09/01 09:27:17;;;;;;;2.83;2.70;;;;;;;;;;4875765;29;20598;-84
2023/09/01 09:29:47;;;;;;;14.90;3.17;;;;;;;;;;4876093;29;20222;-83
2023/09/01 09:32:20;;;;;;;2.67;2.58;;;;;;;;;;4876178;29;20810;-84
2023/09/01 09:35:07;;;;;;;2.60;2.40;;;;;;;;;;4875682;29;20603;-84
2023/09/01 09:37:37;;;;;;;4.07;2.83;;;;;;;;;;4875329;29;20305;-82
2023/09/01 09:40:18;;;;;;;2.60;2.35;;;;;;;;;;4871883;29;20753;-83
2023/09/01 09:42:46;;;;;;;2.53;2.42;;;;;;;;;;4876082;29;20229;-84
2023/09/01 09:45:32;;;;;;;2.65;2.55;;;;;;;;;;4871592;29;20234;-84
2023/09/01 09:48:02;;;;;;;2.30;2.10;;;;;;;;;;4874853;29;20682;-83
2023/09/01 09:50:34;;;;;;;4.95;2.60;;;;;;;;;;4875539;29;20229;-84
2023/09/01 09:53:02;;;;;;;2.22;2.03;;;;;;;;;;4875215;29;20226;-85
2023/09/01 09:55:31;;;;;;;2.67;2.47;;;;;;;;;;4875853;29;20271;-84
2023/09/01 09:58:03;;;;;;;2.55;2.35;;;;;;;;;;4876395;29;20809;-83
2023/09/01 10:00:32;;;;;;;2.60;2.50;;;;;;;;;;4877424;29;20233;-83
2023/09/01 10:03:03;;;;;;;2.47;2.38;;;;;;;;;;4875654;29;20252;-84
2023/09/01 10:05:32;;;;;;;2.13;2.03;;;;;;;;;;4874762;29;20226;-84
2023/09/01 10:08:04;;;;;;;2.65;2.45;;;;;;;;;;4874965;29;20320;-84
2023/09/01 10:10:34;;;;;;;2.05;1.95;;;;;;;;;;4874385;29;20246;-84
2023/09/01 10:13:06;;;;;;;2.65;2.13;;;;;;;;;;4874446;29;20233;-84
2023/09/01 10:15:35;;;;;;;2.40;2.22;;;;;;;;;;4869414;29;20795;-84
2023/09/01 10:18:04;;;;;;;2.22;2.13;;;;;;;;;;4874639;29;20237;-83
2023/09/01 10:20:34;;;;;;;3.28;2.08;;;;;;;;;;4871287;29;20328;-85
2023/09/01 10:23:04;;;;;;;4.50;2.20;;;;;;;;;;4874723;29;20236;-83
2023/09/01 10:25:34;;;;;;;5.25;2.08;;;;;;;;;;4869294;29;20241;-83
2023/09/01 10:28:03;;;;;;;2.65;2.28;;;;;;;;;;4874486;29;20317;-86
2023/09/01 10:30:31;;;;;;;2.30;2.17;;;;;;;;;;4874660;29;20252;-84
2023/09/01 10:33:11;;;;;;;2.30;2.20;;;;;;;;;;4891509;29;20232;-84
2023/09/01 10:35:43;;;;;;;2.47;2.38;;;;;;;;;;4892255;29;20679;-84
2023/09/01 10:38:12;;;;;;;3.22;2.15;;;;;;;;;;4892810;29;20276;-85
2023/09/01 10:40:40;;;;;;;2.67;2.33;;;;;;;;;;4893120;29;20248;-83
2023/09/01 10:43:10;;;;;;;1.98;1.85;;;;;;;;;;4892971;29;20225;-85
2023/09/01 10:45:37;;;;;;;2.40;2.17;;;;;;;;;;4891601;29;20844;-84
2023/09/01 10:48:11;;;;;;;2.50;2.33;;;;;;;;;;4878888;29;20233;-84
2023/09/01 10:50:41;;;;;;;5.88;2.20;;;;;;;;;;4876264;29;20312;-84
2023/09/01 10:53:27;;;;;;;1.90;1.80;;;;;;;;;;4879055;29;20664;-84
2023/09/01 10:56:07;;;;;;;1.73;1.60;;;;;;;;;;4861099;29;20354;-84
2023/09/01 10:58:41;;;;;;;2.10;2.00;;;;;;;;;;4878890;29;20691;-84
2023/09/01 11:01:27;;;;;;;2.17;2.08;;;;;;;;;;4878251;29;20305;-84
2023/09/01 11:03:56;;;;;;;2.15;2.05;;;;;;;;;;4878242;29;20293;-85
2023/09/01 11:06:25;;;;;;;1.90;1.80;;;;;;;;;;4877311;29;20233;-84
2023/09/01 11:08:59;;;;;;;3.05;2.00;;;;;;;;;;4878197;29;20288;-84
2023/09/01 11:11:28;;;;;;;2.15;2.05;;;;;;;;;;4878151;29;20232;-85
2023/09/01 11:13:55;;;;;;;2.20;2.10;;;;;;;;;;4877989;29;20333;-84
2023/09/01 11:16:22;;;;;;;2.00;1.90;;;;;;;;;;4877635;29;20244;-84
2023/09/01 11:19:02;;;;;;;2.10;2.00;;;;;;;;;;4878378;29;20237;-85
2023/09/01 11:21:31;;;;;;;1.65;1.55;;;;;;;;;;4877482;29;20221;-85
2023/09/01 11:23:58;;;;;;;1.98;1.88;;;;;;;;;;4877694;29;20233;-84
2023/09/01 11:26:28;;;;;;;1.98;1.88;;;;;;;;;;4877803;29;20230;-84
2023/09/01 11:28:57;;;;;;;2.15;2.05;;;;;;;;;;4877067;29;20734;-84
2023/09/01 11:31:24;;;;;;;1.83;1.75;;;;;;;;;;4877228;29;20249;-84
2023/09/01 11:33:53;;;;;;;3.80;1.80;;;;;;;;;;4874094;29;20244;-85
2023/09/01 11:36:21;;;;;;;2.20;1.75;;;;;;;;;;4877767;29;20308;-84
2023/09/01 11:38:52;;;;;;;2.38;1.77;;;;;;;;;;4877153;29;20237;-85
2023/09/01 11:41:22;;;;;;;1.90;1.80;;;;;;;;;;4877513;29;20233;-85
2023/09/01 11:43:51;;;;;;;1.80;1.70;;;;;;;;;;4877453;29;20277;-84
2023/09/01 11:46:19;;;;;;;1.90;1.80;;;;;;;;;;4877746;29;20341;-84
2023/09/01 11:48:49;;;;;;;3.15;1.77;;;;;;;;;;4877275;29;20241;-84
2023/09/01 11:51:18;;;;;;;2.10;2.00;;;;;;;;;;4877483;29;20257;-83
2023/09/01 11:53:52;;;;;;;1.60;1.60;;;;;;;;;;4877134;29;20245;-83
2023/09/01 11:56:23;;;;;;;2.30;2.20;;;;;;;;;;4878670;29;20336;-83
2023/09/01 11:58:52;;;;;;;2.10;2.00;;;;;;;;;;4878167;29;20236;-84
2023/09/01 12:01:20;;;;;;;2.10;1.92;;;;;;;;;;4878149;29;20324;-83
2023/09/01 12:03:49;;;;;;;4.28;1.90;;;;;;;;;;4884298;29;20237;-85
2023/09/01 12:06:19;;;;;;;1.40;1.30;;;;;;;;;;4886698;29;20253;-87
2023/09/01 12:08:48;;;;;;;3.58;1.58;;;;;;;;;;4878199;29;20834;-82
2023/09/01 12:11:16;;;;;;;1.60;1.60;;;;;;;;;;4877432;29;20319;-83
2023/09/01 12:13:45;;;;;;;1.45;1.38;;;;;;;;;;4877465;29;20861;-84
2023/09/01 12:16:21;;;;;;;1.58;1.58;;;;;;;;;;4877122;29;20245;-84
2023/09/01 12:18:49;;;;;;;2.22;2.10;;;;;;;;;;4876924;29;20260;-84
2023/09/01 12:21:17;;;;;;;2.13;2.03;;;;;;;;;;4876864;29;20298;-84
2023/09/01 12:23:45;;;;;;;2.80;2.38;;;;;;;;;;4877439;29;20237;-83
2023/09/01 12:26:13;;;;;;;1.70;1.67;;;;;;;;;;4877249;29;20558;-84
2023/09/01 12:28:41;;;;;;;2.13;1.98;;;;;;;;;;4877366;29;20222;-84
2023/09/01 12:31:11;;;;;;;3.38;1.90;;;;;;;;;;4876427;29;20281;-84
2023/09/01 12:33:40;;;;;;;2.33;2.00;;;;;;;;;;4877103;29;20225;-85
2023/09/01 12:36:14;;;;;;;1.73;1.70;;;;;;;;;;4875612;29;20340;-84
2023/09/01 12:38:43;;;;;;;1.90;1.80;;;;;;;;;;4877157;29;20289;-84
2023/09/01 12:41:13;;;;;;;1.58;1.58;;;;;;;;;;4876407;29;20233;-85
2023/09/01 12:43:40;;;;;;;3.97;2.28;;;;;;;;;;4876646;29;20230;-86
2023/09/01 12:46:11;;;;;;;2.25;2.15;;;;;;;;;;4875902;29;20754;-85
2023/09/01 12:48:41;;;;;;;2.63;1.83;;;;;;;;;;4858133;29;20237;-84
2023/09/01 12:51:09;;;;;;;2.45;2.35;;;;;;;;;;4857928;29;20691;-84
2023/09/01 12:53:38;;;;;;;2.40;2.30;;;;;;;;;;4858462;29;20255;-84
2023/09/01 12:56:10;;;;;;;2.50;2.40;;;;;;;;;;4856054;29;20249;-84
2023/09/01 12:58:40;;;;;;;2.22;2.13;;;;;;;;;;4858263;29;20244;-86
2023/09/01 13:01:09;;;;;;;2.28;2.17;;;;;;;;;;4856982;29;20242;-84
2023/09/01 13:03:37;;;;;;;1.80;1.70;;;;;;;;;;4858043;29;20831;-84
2023/09/01 13:06:10;;;;;;;2.35;2.22;;;;;;;;;;4857467;29;20317;-84
2023/09/01 13:08:38;;;;;;;1.85;1.75;;;;;;;;;;4858498;29;20311;-83
2023/09/01 13:11:09;;;;;;;4.13;2.17;;;;;;;;;;4855895;29;20223;-83
2023/09/01 13:13:39;;;;;;;2.00;1.90;;;;;;;;;;4857110;29;20290;-85
2023/09/01 13:16:12;;;;;;;2.08;1.98;;;;;;;;;;4856890;29;20305;-83
2023/09/01 13:18:41;;;;;;;2.25;2.00;;;;;;;;;;4857537;29;20230;-84
2023/09/01 13:21:09;;;;;;;2.53;1.90;;;;;;;;;;4856225;29;20716;-84
2023/09/01 13:23:37;;;;;;;1.50;1.50;;;;;;;;;;4858439;29;20242;-83
2023/09/01 13:26:04;;;;;;;2.00;1.90;;;;;;;;;;4855348;29;20233;-84
2023/09/01 13:28:34;;;;;;;2.05;1.95;;;;;;;;;;4859110;29;20258;-84
2023/09/01 13:31:04;;;;;;;2.25;2.05;;;;;;;;;;4871776;29;20841;-85
2023/09/01 13:33:32;;;;;;;1.80;1.70;;;;;;;;;;4876522;29;20228;-82
2023/09/01 13:36:00;;;;;;;1.27;1.27;;;;;;;;;;4878643;29;20267;-82
2023/09/01 13:38:31;;;;;;;1.92;1.90;;;;;;;;;;4879193;29;20242;-84
2023/09/01 13:40:58;;;;;;;1.55;1.55;;;;;;;;;;4877416;29;20201;-83
2023/09/01 13:43:27;;;;;;;1.27;1.10;;;;;;;;;;4878289;29;20210;-82
2023/09/01 13:45:56;;;;;;;1.85;1.10;;;;;;;;;;4876911;29;20210;-84
2023/09/01 13:48:23;;;;;;;1.40;1.40;;;;;;;;;;4876185;29;20691;-85
2023/09/01 13:50:56;;;;;;;1.35;1.25;;;;;;;;;;4876879;29;20223;-84
2023/09/01 13:53:23;;;;;;;1.50;1.50;;;;;;;;;;4877113;29;20213;-83
2023/09/01 13:55:53;;;;;;;1.73;1.60;;;;;;;;;;4876875;29;20201;-83
2023/09/01 13:58:21;;;;;;;1.65;1.42;;;;;;;;;;4876875;29;20202;-83
2023/09/01 14:00:49;;;;;;;3.50;1.77;;;;;;;;;;4876412;29;20222;-84
2023/09/01 14:03:16;;;;;;;2.17;2.08;;;;;;;;;;4876794;29;20724;-84
2023/09/01 14:05:44;;;;;;;2.70;2.60;;;;;;;;;;4876496;29;20284;-84
2023/09/01 14:08:12;;;;;;;2.38;2.28;;;;;;;;;;4872623;29;20210;-84
2023/09/01 14:10:39;;;;;;;4.80;3.33;;;;;;;;;;4875353;29;20817;-84
2023/09/01 14:13:08;;;;;;;2.60;2.45;;;;;;;;;;4873736;29;20221;-83
2023/09/01 14:15:36;;;;;;;2.50;2.40;;;;;;;;;;4874490;29;20301;-82
2023/09/01 14:18:03;;;;;;;4.20;2.88;;;;;;;;;;4876690;29;20244;-81
2023/09/01 14:20:31;;;;;;;2.67;2.58;;;;;;;;;;4876676;29;20213;-83
2023/09/01 14:22:58;;;;;;;2.67;2.45;;;;;;;;;;4874849;29;20471;-84
2023/09/01 14:25:26;;;;;;;3.85;2.65;;;;;;;;;;4874681;29;20257;-84
2023/09/01 14:27:54;;;;;;;2.70;2.60;;;;;;;;;;4874842;29;20205;-85
2023/09/01 14:30:23;;;;;;;3.08;2.70;;;;;;;;;;4873909;29;20205;-85
2023/09/01 14:32:50;;;;;;;3.25;2.95;;;;;;;;;;4874692;29;20215;-85
2023/09/01 14:35:18;;;;;;;2.63;2.53;;;;;;;;;;4875551;29;20205;-85
2023/09/01 14:37:47;;;;;;;3.10;2.78;;;;;;;;;;4873779;29;20271;-85
2023/09/01 14:40:15;;;;;;;2.83;2.72;;;;;;;;;;4875632;29;20197;-84
2023/09/01 14:42:45;;;;;;;3.15;2.85;;;;;;;;;;4876979;29;20213;-86
2023/09/01 14:45:14;;;;;;;3.20;3.00;;;;;;;;;;4874452;29;20266;-84
2023/09/01 14:47:44;;;;;;;2.53;2.42;;;;;;;;;;4876111;29;20202;-83
2023/09/01 14:50:12;;;;;;;2.55;2.45;;;;;;;;;;4876143;29;20556;-85
2023/09/01 14:52:42;;;;;;;3.00;2.80;;;;;;;;;;4875187;29;20233;-85
2023/09/01 14:55:10;;;;;;;2.83;2.72;;;;;;;;;;4875406;29;20216;-88
2023/09/01 14:57:39;;;;;;;2.45;2.35;;;;;;;;;;4874804;29;20297;-85
2023/09/01 15:00:09;;;;;;;2.65;2.50;;;;;;;;;;4869746;29;20724;-85
2023/09/01 15:02:39;;;;;;;2.30;2.20;;;;;;;;;;4881912;29;20622;-85
2023/09/01 15:05:13;;;;;;;3.10;2.80;;;;;;;;;;4877346;29;20244;-85